createdAt,value
2019-04-30T00:02:05.810Z,98662.99
2019-04-30T00:04:40.558Z,98666.00
2019-04-30T00:07:10.330Z,98670.38
2019-04-30T00:09:40.811Z,98672.53
2019-04-30T00:12:09.644Z,98673.77
2019-04-30T00:14:41.264Z,98677.82
2019-04-30T00:17:10.790Z,98677.35
2019-04-30T00:19:38.847Z,98670.36
2019-04-30T00:22:07.488Z,98674.05
2019-04-30T00:24:39.833Z,98666.65
2019-04-30T00:27:06.549Z,98671.83
2019-04-30T00:29:35.582Z,98675.23
2019-04-30T00:32:07.819Z,98669.83
2019-04-30T00:34:37.894Z,98673.23
2019-04-30T00:37:07.366Z,98680.17
2019-04-30T00:39:35.995Z,98683.85
2019-04-30T00:42:05.014Z,98672.92
2019-04-30T00:44:35.547Z,98672.85
2019-04-30T00:47:08.060Z,98668.21
2019-04-30T00:49:35.114Z,98667.05
2019-04-30T00:52:05.178Z,98665.16
2019-04-30T00:54:35.163Z,98672.47
2019-04-30T00:57:07.540Z,98679.62
2019-04-30T00:59:35.062Z,98672.06
2019-04-30T01:02:30.439Z,98675.84
2019-04-30T01:04:52.489Z,98669.42
2019-04-30T01:07:21.159Z,98683.81
2019-04-30T01:09:50.026Z,98678.52
2019-04-30T01:12:24.674Z,98679.97
2019-04-30T01:14:49.839Z,98686.58
2019-04-30T01:17:18.927Z,98679.37
2019-04-30T01:19:51.172Z,98681.14
2019-04-30T01:22:21.094Z,98675.16
2019-04-30T01:24:49.688Z,98678.39
2019-04-30T01:27:18.888Z,98685.54
2019-04-30T01:29:48.731Z,98680.17
2019-04-30T01:32:20.920Z,98685.40
2019-04-30T01:34:49.822Z,98680.57
2019-04-30T01:37:20.268Z,98681.87
2019-04-30T01:39:49.243Z,98682.51
2019-04-30T01:42:18.510Z,98682.56
2019-04-30T01:44:50.523Z,98679.67
2019-04-30T01:47:21.422Z,98683.19
2019-04-30T01:49:49.569Z,98683.40
2019-04-30T01:52:19.378Z,98684.01
2019-04-30T01:54:49.005Z,98689.83
2019-04-30T01:57:34.672Z,98684.41
2019-04-30T02:00:14.984Z,98681.54
2019-04-30T02:02:49.088Z,98682.52
2019-04-30T02:05:18.860Z,98678.86
2019-04-30T02:07:48.657Z,98687.74
2019-04-30T02:10:18.618Z,98674.55
2019-04-30T02:12:49.197Z,98671.82
2019-04-30T02:15:19.202Z,98670.64
2019-04-30T02:17:50.235Z,98664.54
2019-04-30T02:20:18.664Z,98671.66
2019-04-30T02:22:48.635Z,98670.09
2019-04-30T02:25:17.220Z,98665.15
2019-04-30T02:27:45.879Z,98668.75
2019-04-30T02:30:14.581Z,98663.48
2019-04-30T02:32:43.262Z,98662.23
2019-04-30T02:35:16.470Z,98657.64
2019-04-30T02:38:02.918Z,98657.42
2019-04-30T02:40:34.656Z,98663.48
2019-04-30T02:43:03.735Z,98659.21
2019-04-30T02:45:33.667Z,98659.85
2019-04-30T02:48:04.217Z,98658.48
2019-04-30T02:50:35.225Z,98658.37
2019-04-30T02:53:06.760Z,98658.11
2019-04-30T02:55:44.875Z,98655.47
2019-04-30T02:58:13.491Z,98659.39
2019-04-30T03:00:42.032Z,98652.72
2019-04-30T03:03:11.054Z,98656.28
2019-04-30T03:05:39.686Z,98653.86
2019-04-30T03:08:09.606Z,98659.25
2019-04-30T03:10:40.221Z,98665.21
2019-04-30T03:13:09.851Z,98657.00
2019-04-30T03:15:39.477Z,98652.37
2019-04-30T03:18:12.529Z,98654.41
2019-04-30T03:20:51.774Z,98659.45
2019-04-30T03:23:20.442Z,98653.17
2019-04-30T03:25:50.174Z,98653.13
2019-04-30T03:28:20.181Z,98661.88
2019-04-30T03:30:56.219Z,98661.08
2019-04-30T03:33:22.976Z,98654.05
2019-04-30T03:35:54.165Z,98663.55
2019-04-30T03:38:20.457Z,98665.97
2019-04-30T03:40:50.195Z,98664.74
2019-04-30T03:43:20.099Z,98665.39
2019-04-30T03:45:49.930Z,98669.32
2019-04-30T03:48:20.053Z,98670.84
2019-04-30T03:50:55.617Z,98670.61
2019-04-30T03:53:20.260Z,98668.27
2019-04-30T03:55:50.528Z,98668.65
2019-04-30T03:58:21.175Z,98672.69
2019-04-30T04:00:54.299Z,98664.81
2019-04-30T04:03:22.911Z,98671.70
2019-04-30T04:05:53.169Z,98670.30
2019-04-30T04:08:29.518Z,98667.61
2019-04-30T04:11:00.459Z,98674.69
2019-04-30T04:13:29.977Z,98667.31
2019-04-30T04:16:00.066Z,98668.92
2019-04-30T04:18:30.177Z,98672.91
2019-04-30T04:21:08.880Z,98675.24
2019-04-30T04:23:32.643Z,98677.70
2019-04-30T04:25:59.719Z,98683.27
2019-04-30T04:28:29.964Z,98689.97
2019-04-30T04:31:00.145Z,98688.25
2019-04-30T04:33:29.652Z,98682.97
2019-04-30T04:35:59.748Z,98687.14
2019-04-30T04:38:30.342Z,98684.54
2019-04-30T04:41:02.627Z,98691.61
2019-04-30T04:43:30.038Z,98679.09
2019-04-30T04:45:59.412Z,98688.41
2019-04-30T04:48:29.779Z,98689.75
2019-04-30T04:51:00.047Z,98695.53
2019-04-30T04:53:30.394Z,98695.85
2019-04-30T04:55:59.975Z,98700.33
2019-04-30T04:58:30.296Z,98703.96
2019-04-30T05:00:59.293Z,98704.44
2019-04-30T05:03:32.675Z,98698.80
2019-04-30T05:06:02.677Z,98701.97
2019-04-30T05:08:31.389Z,98702.38
2019-04-30T05:10:59.994Z,98701.95
2019-04-30T05:13:29.038Z,98704.98
2019-04-30T05:15:59.372Z,98703.48
2019-04-30T05:18:29.129Z,98709.66
2019-04-30T05:20:59.013Z,98705.27
2019-04-30T05:23:29.867Z,98700.56
2019-04-30T05:25:58.918Z,98695.08
2019-04-30T05:28:29.943Z,98697.27
2019-04-30T05:30:59.391Z,98700.22
2019-04-30T05:33:28.578Z,98698.60
2019-04-30T05:35:59.252Z,98701.02
2019-04-30T05:38:29.060Z,98701.83
2019-04-30T05:40:59.569Z,98700.42
2019-04-30T05:43:29.003Z,98695.58
2019-04-30T05:45:58.671Z,98696.55
2019-04-30T05:48:28.567Z,98692.56
2019-04-30T05:50:58.964Z,98692.06
2019-04-30T05:53:28.696Z,98682.11
2019-04-30T05:55:59.185Z,98681.61
2019-04-30T05:58:29.955Z,98685.94
2019-04-30T06:00:59.718Z,98684.33
2019-04-30T06:03:32.797Z,98678.22
2019-04-30T06:05:59.049Z,98679.12
2019-04-30T06:08:29.331Z,98682.35
2019-04-30T06:11:11.660Z,98679.87
2019-04-30T06:14:01.218Z,98680.53
2019-04-30T06:16:30.678Z,98678.94
2019-04-30T06:18:59.302Z,98668.64
2019-04-30T06:21:29.514Z,98678.45
2019-04-30T06:23:59.149Z,98667.95
2019-04-30T06:26:29.573Z,98677.62
2019-04-30T06:28:59.279Z,98672.94
2019-04-30T06:31:34.329Z,98677.23
2019-04-30T06:33:58.685Z,98684.70
2019-04-30T06:36:28.607Z,98687.47
2019-04-30T06:38:58.968Z,98685.34
2019-04-30T06:41:29.629Z,98685.84
2019-04-30T06:43:58.781Z,98681.45
2019-04-30T06:46:28.599Z,98676.08
2019-04-30T06:48:59.403Z,98680.33
2019-04-30T06:51:30.541Z,98670.11
2019-04-30T06:53:58.699Z,98669.06
2019-04-30T06:56:28.891Z,98667.66
2019-04-30T06:58:59.048Z,98668.40
2019-04-30T07:01:29.090Z,98666.48
2019-04-30T07:04:00.788Z,98671.62
2019-04-30T07:06:32.326Z,98665.49
2019-04-30T07:09:16.654Z,98657.92
2019-04-30T07:11:59.371Z,98651.89
2019-04-30T07:14:29.227Z,98654.19
2019-04-30T07:16:59.419Z,98653.91
2019-04-30T07:19:34.576Z,98647.30
2019-04-30T07:21:59.425Z,98645.48
2019-04-30T07:24:29.639Z,98649.56
2019-04-30T07:27:02.584Z,98653.61
2019-04-30T07:29:29.587Z,98646.38
2019-04-30T07:31:59.232Z,98633.09
2019-04-30T07:34:30.273Z,98631.16
2019-04-30T07:37:11.784Z,98630.13
2019-04-30T07:39:33.254Z,98630.34
2019-04-30T07:41:59.958Z,98623.03
2019-04-30T07:44:35.482Z,98633.69
2019-04-30T07:46:59.384Z,98624.83
2019-04-30T07:49:47.042Z,98632.10
2019-04-30T07:52:03.318Z,98624.95
2019-04-30T07:54:32.208Z,98617.82
2019-04-30T07:57:00.775Z,98622.60
2019-04-30T07:59:30.200Z,98620.94
2019-04-30T08:02:07.507Z,98617.31
2019-04-30T08:04:46.668Z,98619.09
2019-04-30T08:07:15.393Z,98623.45
2019-04-30T08:09:43.998Z,98617.25
2019-04-30T08:12:21.767Z,98615.44
2019-04-30T08:14:43.146Z,98612.33
2019-04-30T08:17:11.708Z,98604.16
2019-04-30T08:19:41.049Z,98598.45
2019-04-30T08:22:09.781Z,98594.44
2019-04-30T08:24:39.088Z,98594.76
2019-04-30T08:27:09.766Z,98603.90
2019-04-30T08:29:39.468Z,98589.69
2019-04-30T08:32:11.256Z,98576.93
2019-04-30T08:34:39.834Z,98580.41
2019-04-30T08:37:17.079Z,98580.39
2019-04-30T08:39:39.753Z,98578.14
2019-04-30T08:42:08.984Z,98578.16
2019-04-30T08:44:39.516Z,98583.59
2019-04-30T08:47:08.679Z,98579.41
2019-04-30T08:49:37.978Z,98575.92
2019-04-30T08:52:07.683Z,98568.89
2019-04-30T08:54:36.165Z,98574.25
2019-04-30T08:57:08.618Z,98570.05
2019-04-30T08:59:39.367Z,98561.13
2019-04-30T09:02:16.083Z,98549.41
2019-04-30T09:04:38.861Z,98538.59
2019-04-30T09:07:10.086Z,98538.89
2019-04-30T09:09:38.959Z,98530.05
2019-04-30T09:12:09.932Z,98533.92
2019-04-30T09:14:40.577Z,98533.47
2019-04-30T09:17:11.988Z,98530.51
2019-04-30T09:19:40.595Z,98530.86
2019-04-30T09:22:15.011Z,98530.66
2019-04-30T09:24:39.960Z,98524.36
2019-04-30T09:27:10.610Z,98522.61
2019-04-30T09:29:39.174Z,98523.41
2019-04-30T09:32:09.230Z,98533.34
2019-04-30T09:34:38.440Z,98543.94
2019-04-30T09:37:08.720Z,98536.41
2019-04-30T09:39:39.245Z,98529.56
2019-04-30T09:42:09.247Z,98531.34
2019-04-30T09:44:39.027Z,98531.20
2019-04-30T09:47:08.881Z,98532.24
2019-04-30T09:49:38.816Z,98522.77
2019-04-30T09:52:09.234Z,98525.39
2019-04-30T09:54:39.805Z,98519.77
2019-04-30T09:57:08.779Z,98522.73
2019-04-30T09:59:38.908Z,98505.19
2019-04-30T10:02:09.206Z,98499.87
2019-04-30T10:04:39.791Z,98492.27
2019-04-30T10:07:09.648Z,98475.69
2019-04-30T10:09:38.201Z,98482.52
2019-04-30T10:12:11.494Z,98484.65
2019-04-30T10:14:41.063Z,98484.49
2019-04-30T10:17:29.580Z,98470.20
2019-04-30T10:19:58.254Z,98467.61
2019-04-30T10:22:26.804Z,98463.86
2019-04-30T10:24:55.441Z,98457.94
2019-04-30T10:27:25.253Z,98460.19
2019-04-30T10:29:54.427Z,98464.59
2019-04-30T10:32:22.989Z,98459.12
2019-04-30T10:34:51.623Z,98450.25
2019-04-30T10:37:21.276Z,98443.69
2019-04-30T10:39:49.928Z,98447.90
2019-04-30T10:42:18.615Z,98434.61
2019-04-30T10:44:47.353Z,98423.11
2019-04-30T10:47:16.254Z,98419.34
2019-04-30T10:49:44.882Z,98420.80
2019-04-30T10:52:13.506Z,98415.00
2019-04-30T10:54:42.133Z,98406.27
2019-04-30T10:57:10.765Z,98395.44
2019-04-30T10:59:39.395Z,98395.14
2019-04-30T11:02:09.046Z,98389.30
2019-04-30T11:04:37.724Z,98380.47
2019-04-30T11:07:08.533Z,98375.05
2019-04-30T11:09:39.382Z,98373.39
2019-04-30T11:12:09.512Z,98374.01
2019-04-30T11:14:38.258Z,98368.67
2019-04-30T11:17:07.130Z,98357.98
2019-04-30T11:19:36.064Z,98348.48
2019-04-30T11:22:05.039Z,98339.42
2019-04-30T11:24:38.065Z,98334.91
2019-04-30T11:27:04.540Z,98335.33
2019-04-30T11:29:33.520Z,98340.63
2019-04-30T11:32:04.259Z,98328.26
2019-04-30T11:34:32.934Z,98328.36
2019-04-30T11:37:01.659Z,98326.76
2019-04-30T11:39:30.458Z,98317.63
2019-04-30T11:41:59.103Z,98319.36
2019-04-30T11:44:31.337Z,98317.00
2019-04-30T11:47:01.045Z,98321.77
2019-04-30T11:49:32.406Z,98320.44
2019-04-30T11:52:01.030Z,98318.19
2019-04-30T11:54:29.951Z,98328.84
2019-04-30T11:56:58.947Z,98314.86
2019-04-30T11:59:29.619Z,98318.06
2019-04-30T12:01:59.573Z,98321.70
2019-04-30T12:04:29.845Z,98310.89
2019-04-30T12:07:00.211Z,98317.66
2019-04-30T12:09:48.482Z,98322.17
2019-04-30T12:12:18.872Z,98318.88
2019-04-30T12:14:49.379Z,98313.09
2019-04-30T12:17:18.024Z,98317.95
2019-04-30T12:19:48.717Z,98317.61
2019-04-30T12:22:19.982Z,98321.97
2019-04-30T12:24:48.867Z,98320.61
2019-04-30T12:27:18.706Z,98325.55
2019-04-30T12:29:49.467Z,98328.39
2019-04-30T12:32:19.158Z,98332.22
2019-04-30T12:34:48.093Z,98334.46
2019-04-30T12:37:16.719Z,98335.81
2019-04-30T12:39:45.325Z,98340.20
2019-04-30T12:42:13.942Z,98340.58
2019-04-30T12:44:42.649Z,98349.73
2019-04-30T12:47:11.142Z,98343.72
2019-04-30T12:49:50.709Z,98349.48
2019-04-30T12:52:26.809Z,98345.19
2019-04-30T12:54:59.699Z,98346.84
2019-04-30T12:57:32.253Z,98332.71
2019-04-30T13:00:00.925Z,98330.83
2019-04-30T13:02:29.615Z,98328.13
2019-04-30T13:05:00.475Z,98333.40
2019-04-30T13:07:30.366Z,98336.31
2019-04-30T13:10:01.539Z,98324.31
2019-04-30T13:12:30.431Z,98317.33
2019-04-30T13:14:59.161Z,98320.98
2019-04-30T13:17:27.746Z,98316.45
2019-04-30T13:19:56.368Z,98310.68
2019-04-30T13:22:25.091Z,98300.94
2019-04-30T13:24:53.783Z,98299.58
2019-04-30T13:27:22.689Z,98294.52
2019-04-30T13:29:52.954Z,98291.34
2019-04-30T13:32:29.613Z,98283.90
2019-04-30T13:34:53.496Z,98282.91
2019-04-30T13:37:21.978Z,98285.29
2019-04-30T13:39:54.965Z,98289.53
2019-04-30T13:42:29.371Z,98277.86
2019-04-30T13:44:58.143Z,98276.28
2019-04-30T13:47:26.806Z,98261.98
2019-04-30T13:49:55.406Z,98261.61
2019-04-30T13:52:28.900Z,98263.19
2019-04-30T13:54:57.180Z,98267.44
2019-04-30T13:57:25.748Z,98262.82
2019-04-30T13:59:54.374Z,98255.68
2019-04-30T14:02:22.963Z,98264.50
2019-04-30T14:05:02.251Z,98257.60
2019-04-30T14:07:49.554Z,98256.09
2019-04-30T14:10:19.577Z,98264.27
2019-04-30T14:12:52.479Z,98268.08
2019-04-30T14:15:21.275Z,98267.62
2019-04-30T14:17:49.924Z,98270.63
2019-04-30T14:20:18.650Z,98273.07
2019-04-30T14:22:47.284Z,98274.41
2019-04-30T14:25:16.002Z,98271.37
2019-04-30T14:27:52.313Z,98272.16
2019-04-30T14:30:16.341Z,98280.33
2019-04-30T14:32:44.888Z,98276.83
2019-04-30T14:35:13.660Z,98286.34
2019-04-30T14:37:42.280Z,98296.33
2019-04-30T14:40:13.054Z,98306.78
2019-04-30T14:42:46.233Z,98308.98
2019-04-30T14:45:17.355Z,98322.00
2019-04-30T14:47:50.686Z,98331.53
2019-04-30T14:50:25.883Z,98327.76
2019-04-30T14:52:56.151Z,98331.33
2019-04-30T14:55:29.523Z,98355.81
2019-04-30T14:57:59.764Z,98365.79
2019-04-30T15:00:49.707Z,98361.22
2019-04-30T15:03:22.630Z,98365.52
2019-04-30T15:05:51.752Z,98368.77
2019-04-30T15:08:20.539Z,98371.78
2019-04-30T15:10:49.287Z,98371.66
2019-04-30T15:13:19.505Z,98377.78
2019-04-30T15:15:49.136Z,98372.98
2019-04-30T15:18:19.153Z,98383.64
2019-04-30T15:20:49.792Z,98383.90
2019-04-30T15:23:22.731Z,98389.89
2019-04-30T15:25:51.316Z,98387.62
2019-04-30T15:28:19.825Z,98390.09
2019-04-30T15:30:51.187Z,98394.87
2019-04-30T15:33:33.374Z,98397.79
2019-04-30T15:36:02.663Z,98390.49
2019-04-30T15:38:32.859Z,98389.71
2019-04-30T15:41:01.456Z,98387.86
2019-04-30T15:43:30.149Z,98389.30
2019-04-30T15:45:58.777Z,98396.19
2019-04-30T15:48:27.429Z,98403.38
2019-04-30T15:50:55.998Z,98400.80
2019-04-30T15:53:24.635Z,98400.50
2019-04-30T15:56:00.643Z,98399.56
2019-04-30T15:58:31.011Z,98403.59
2019-04-30T16:01:00.016Z,98407.58
2019-04-30T16:03:39.405Z,98416.53
2019-04-30T16:06:08.368Z,98421.08
2019-04-30T16:08:54.915Z,98426.16
2019-04-30T16:11:31.001Z,98434.17
2019-04-30T16:14:09.819Z,98447.59
2019-04-30T16:16:40.163Z,98446.92
2019-04-30T16:19:09.207Z,98459.63
2019-04-30T16:21:37.936Z,98458.98
2019-04-30T16:26:53.019Z,98460.06
2019-04-30T16:29:21.655Z,98458.71
2019-04-30T16:31:53.417Z,98461.03
2019-04-30T16:34:22.067Z,98468.19
2019-04-30T16:36:50.694Z,98469.19
2019-04-30T16:39:19.392Z,98466.30
2019-04-30T16:41:49.560Z,98467.47
2019-04-30T16:44:21.315Z,98465.20
2019-04-30T16:46:52.640Z,98467.35
2019-04-30T16:49:28.917Z,98469.77
2019-04-30T16:52:01.207Z,98476.63
2019-04-30T16:54:28.535Z,98470.11
2019-04-30T16:57:04.125Z,98477.59
2019-04-30T16:59:30.612Z,98486.23
2019-04-30T17:02:00.448Z,98488.40
2019-04-30T17:04:39.806Z,98490.53
2019-04-30T17:07:13.076Z,98502.17
2019-04-30T17:09:50.991Z,98508.64
2019-04-30T17:12:26.993Z,98518.98
2019-04-30T17:15:13.435Z,98527.59
2019-04-30T17:17:42.146Z,98536.02
2019-04-30T17:20:10.988Z,98548.36
2019-04-30T17:22:39.600Z,98549.58
2019-04-30T17:25:09.041Z,98558.98
2019-04-30T17:27:39.260Z,98558.88
2019-04-30T17:30:11.005Z,98547.36
2019-04-30T17:32:39.715Z,98547.36
2019-04-30T17:35:11.271Z,98544.97
2019-04-30T17:37:39.953Z,98552.69
2019-04-30T17:40:12.412Z,98563.97
2019-04-30T17:42:40.975Z,98554.77
2019-04-30T17:45:10.115Z,98553.36
2019-04-30T17:47:38.677Z,98537.13
2019-04-30T17:50:10.815Z,98547.67
2019-04-30T17:52:39.445Z,98525.56
2019-04-30T17:55:09.674Z,98528.95
2019-04-30T17:57:40.235Z,98528.95
2019-04-30T18:00:18.893Z,98523.19
2019-04-30T18:02:45.749Z,98528.25
2019-04-30T18:05:14.373Z,98548.20
2019-04-30T18:07:42.939Z,98548.20
2019-04-30T18:10:13.186Z,98543.83
2019-04-30T18:12:44.778Z,98541.10
2019-04-30T18:15:15.796Z,98554.84
2019-04-30T18:17:46.067Z,98554.69
2019-04-30T18:20:25.526Z,98558.28
2019-04-30T18:22:58.571Z,98554.34
2019-04-30T18:25:37.759Z,98552.70
2019-04-30T18:28:09.262Z,98557.72
2019-04-30T18:30:39.356Z,98558.26
2019-04-30T18:33:10.767Z,98555.83
2019-04-30T18:35:39.410Z,98553.87
2019-04-30T18:38:09.801Z,98563.30
2019-04-30T18:40:39.788Z,98554.23
2019-04-30T18:43:08.574Z,98556.41
2019-04-30T18:45:39.393Z,98547.67
2019-04-30T18:48:09.569Z,98569.44
2019-04-30T18:50:38.091Z,98568.33
2019-04-30T18:53:08.726Z,98563.77
2019-04-30T18:55:37.369Z,98568.87
2019-04-30T18:58:06.065Z,98566.69
2019-04-30T19:00:42.385Z,98566.24
2019-04-30T19:03:11.412Z,98572.12
2019-04-30T19:05:41.687Z,98581.06
2019-04-30T19:08:12.009Z,98578.42
2019-04-30T19:10:58.868Z,98589.27
2019-04-30T19:13:46.650Z,98599.19
2019-04-30T19:16:26.177Z,98611.44
2019-04-30T19:19:02.294Z,98623.92
2019-04-30T19:21:33.856Z,98638.24
2019-04-30T19:24:02.251Z,98624.39
2019-04-30T19:26:33.908Z,98624.39
2019-04-30T19:29:02.523Z,98636.00
2019-04-30T19:31:31.097Z,98636.00
2019-04-30T19:33:59.807Z,98653.50
2019-04-30T19:36:37.343Z,98649.19
2019-04-30T19:38:59.748Z,98649.06
2019-04-30T19:41:28.783Z,98642.22
2019-04-30T19:43:57.390Z,98653.77
2019-04-30T19:46:25.997Z,98669.59
2019-04-30T19:48:54.563Z,98669.59
2019-04-30T19:51:23.190Z,98677.33
2019-04-30T19:53:51.874Z,98668.13
2019-04-30T19:56:20.728Z,98677.91
2019-04-30T19:59:01.515Z,98683.66
2019-04-30T20:01:19.659Z,98689.70
2019-04-30T20:03:48.288Z,98696.17
2019-04-30T20:06:19.005Z,98706.78
2019-04-30T20:08:47.244Z,98705.18
2019-04-30T20:11:15.881Z,98705.78
2019-04-30T20:13:44.561Z,98713.74
2019-04-30T20:16:13.117Z,98716.10
2019-04-30T20:18:41.608Z,98715.16
2019-04-30T20:21:11.908Z,98716.22
2019-04-30T20:23:40.464Z,98724.31
2019-04-30T20:26:09.109Z,98726.73
2019-04-30T20:28:41.394Z,98729.73
2019-04-30T20:31:09.155Z,98734.27
2019-04-30T20:33:38.993Z,98734.63
2019-04-30T20:36:09.199Z,98729.07
2019-04-30T20:38:42.771Z,98729.08
2019-04-30T20:41:12.445Z,98731.70
2019-04-30T20:43:41.008Z,98736.48
2019-04-30T20:46:09.682Z,98731.88
2019-04-30T20:48:39.297Z,98739.76
2019-04-30T20:51:09.557Z,98751.95
2019-04-30T20:53:39.070Z,98744.48
2019-04-30T20:56:09.212Z,98753.48
2019-04-30T20:58:39.087Z,98751.02
2019-04-30T21:01:09.562Z,98751.31
2019-04-30T21:03:39.535Z,98759.03
2019-04-30T21:06:08.904Z,98765.84
2019-04-30T21:08:37.549Z,98768.81
2019-04-30T21:11:06.213Z,98770.56
2019-04-30T21:13:34.839Z,98770.72
2019-04-30T21:16:03.480Z,98767.02
2019-04-30T21:18:32.614Z,98771.08
2019-04-30T21:21:01.288Z,98779.97
2019-04-30T21:23:29.923Z,98784.86
2019-04-30T21:25:59.056Z,98789.17
2019-04-30T21:28:29.656Z,98798.05
2019-04-30T21:30:59.809Z,98800.08
2019-04-30T21:33:41.872Z,98804.02
2019-04-30T21:36:12.081Z,98795.78
2019-04-30T21:38:40.709Z,98807.98
2019-04-30T21:41:09.965Z,98813.12
2019-04-30T21:43:38.583Z,98815.20
2019-04-30T21:46:09.368Z,98806.96
2019-04-30T21:48:38.848Z,98810.06
2019-04-30T21:51:09.443Z,98816.68
2019-04-30T21:53:39.619Z,98812.74
2019-04-30T21:56:08.339Z,98813.30
2019-04-30T21:58:36.835Z,98821.02
2019-04-30T22:01:13.287Z,98817.48
2019-04-30T22:03:43.555Z,98822.81
2019-04-30T22:06:12.460Z,98816.94
2019-04-30T22:08:41.063Z,98822.28
2019-04-30T22:11:09.878Z,98820.52
2019-04-30T22:13:39.625Z,98818.36
2019-04-30T22:16:08.990Z,98820.39
2019-04-30T22:18:37.618Z,98824.79
2019-04-30T22:21:06.288Z,98824.09
2019-04-30T22:23:34.921Z,98820.98
2019-04-30T22:26:03.555Z,98821.16
2019-04-30T22:28:32.225Z,98817.97
2019-04-30T22:31:00.792Z,98828.75
2019-04-30T22:33:29.437Z,98827.23
2019-04-30T22:35:59.711Z,98829.81
2019-04-30T22:38:39.171Z,98826.58
2019-04-30T22:41:08.876Z,98822.52
2019-04-30T22:43:37.485Z,98821.52
2019-04-30T22:46:10.767Z,98820.96
2019-04-30T22:48:39.401Z,98819.46
2019-04-30T22:51:08.080Z,98824.38
2019-04-30T22:53:36.573Z,98815.95
2019-04-30T22:56:05.243Z,98809.13
2019-04-30T22:58:33.816Z,98810.96
2019-04-30T23:01:04.133Z,98811.05
2019-04-30T23:03:34.046Z,98817.15
2019-04-30T23:06:02.730Z,98810.88
2019-04-30T23:08:31.368Z,98813.30
2019-04-30T23:11:00.214Z,98808.53
2019-04-30T23:13:28.900Z,98814.11
2019-04-30T23:15:57.546Z,98802.69
2019-04-30T23:18:26.104Z,98802.16
2019-04-30T23:20:54.712Z,98805.42
2019-04-30T23:23:23.346Z,98805.88
2019-04-30T23:25:51.987Z,98811.70
2019-04-30T23:28:20.587Z,98804.20
2019-04-30T23:30:49.152Z,98799.48
2019-04-30T23:33:17.795Z,98804.72
2019-04-30T23:35:46.398Z,98803.69
2019-04-30T23:38:15.039Z,98801.08
2019-04-30T23:40:46.804Z,98797.45
2019-04-30T23:43:15.372Z,98812.63
2019-04-30T23:45:44.750Z,98811.91
2019-04-30T23:48:13.696Z,98809.35
2019-04-30T23:50:42.339Z,98804.92
2019-04-30T23:53:11.186Z,98812.25
2019-04-30T23:55:39.839Z,98817.61
2019-04-30T23:58:08.515Z,98814.58
